Новомарковка

Карта отелей и гостиниц, располагающихся рядом с аэропортом Новомарковка :

Новомарковка Воронежская область 49° 42' 19.3392" N, 39° 45' 9.6192" E
Код аэродрома ИКАО
HGR1
Код аэродрома RU
ХГР1
Координаты
N49.70537° E039.75267°
Превышение над уровнем моря
168
Основная полоса
05/23
Курс магнитный
054,5/234,5
Длина основной ВПП
10
Ширина основной ВПП
10
Покрытие основной ВПП
Твёрдое
Освещение ВПП
Нет
Тип: 
Вертодром
Класс аэродрома: 
Принадлежность: 
ГА
Статус: 
Действующий
Сайт: 
E-mail аэродрома: 
Страна: 
Россия
Регион: 
Воронежская область
Город: 
Дополнительная информация: 
Владелец ПП: нет данных.


Найти трансфер

С помощью этой формы Вы можете найти трансфер из аэропорта Новомарковка в город, аэропорт или вокзал:

Погода в аэропортах:

Авиационная погода в Миккели

Регион: 
Погода METAR: 
EFMI 291020Z AUTO 19006KT 160V230 9999 -SHRA //////CB 13/10 Q1004
Время наблюдения
2022-05-29T10:20:00Z
Температура C
13.0
Точка росы
10.0
Направление ветра
190
Скорость ветра (узлы)
6
Метео видимость
6.21
Облачность
Нижняя граница облачности (футы)
Явления погоды
-SHRA
Условия полета
-SHRA - слабый ливневой дождь;

Авиационная погода в Ханты-Мансийске

Регион: 
Погода METAR: 
USHH 291030Z 24009G15MPS 7000 -TSRA SCT036CB 12/12 Q1005 R24/290055 TEMPO VRB20MPS 1000 TSRA SQ BKN010CB
Время наблюдения
2022-05-29T10:30:00Z
Температура C
12.0
Точка росы
12.0
Направление ветра
240
Скорость ветра (узлы)
17
Метео видимость
4.35
Облачность
SCT
Нижняя граница облачности (футы)
3600
Явления погоды
-TSRA
Условия полета
MVFR
Аэропорт подробнее: 
SCT – разбросанная отдельная облачность;
TSRA - гроза с дождём;

Авиационная погода в Москва - Домодедово

Погода METAR: 
UUDD 291030Z 25006G11MPS 170V270 9999 -SHRA BKN050CB 12/05 Q1012 R32L/290045 NOSIG
Время наблюдения
2022-05-29T10:30:00Z
Температура C
12.0
Точка росы
5.0
Направление ветра
250
Скорость ветра (узлы)
12
Метео видимость
6.21
Облачность
BKN
Нижняя граница облачности (футы)
5000
Явления погоды
-SHRA
Условия полета
VFR
Аэропорт подробнее: 
BKN – значительная (рассеянная, разорванная) облачность;
-SHRA - слабый ливневой дождь;

Авиационная погода в Игнатьево

Регион: 
Погода METAR: 
UHBB 291030Z 09002MPS 9000 -SHRA BKN026CB 12/12 Q0996 R36/290250 NOSIG RMK QFE730/0973
Время наблюдения
2022-05-29T10:30:00Z
Температура C
12.0
Точка росы
12.0
Направление ветра
90
Скорость ветра (узлы)
4
Метео видимость
5.59
Облачность
BKN
Нижняя граница облачности (футы)
2600
Явления погоды
-SHRA
Условия полета
MVFR
Аэропорт подробнее: 
BKN – значительная (рассеянная, разорванная) облачность;
-SHRA - слабый ливневой дождь;